Time;durP1;ratioP1;P1;durP2;ratioP2;P2;SDS_P1;SDS_P2;PMS_P1;PMS_P2;Temp;Humidity;BMP_temperature;BMP_pressure;BME280_temperature;BME280_humidity;BME280_pressure;Samples;Min_cycle;Max_cycle;Signal;HPM_P1;HPM_P2
2024/01/19 00:00:47;;;;;;;2.80;1.47;;;;;;;24.07;39.74;93956.50;6158130;28;108997;-53
2024/01/19 00:03:50;;;;;;;3.80;1.90;;;;;;;24.07;39.97;93967.19;6154897;28;109745;-52
2024/01/19 00:06:53;;;;;;;2.40;1.73;;;;;;;23.92;40.20;93972.47;6153891;28;109187;-53
2024/01/19 00:09:57;;;;;;;2.67;1.70;;;;;;;24.01;40.18;93981.13;6159055;28;110246;-53
2024/01/19 00:13:00;;;;;;;2.30;1.80;;;;;;;24.19;39.62;93969.78;6159557;28;110141;-53
2024/01/19 00:16:04;;;;;;;3.33;1.67;;;;;;;24.04;40.01;93973.22;6147937;28;109495;-53
2024/01/19 00:19:07;;;;;;;3.67;1.57;;;;;;;23.84;40.52;93982.97;6158593;28;109688;-52
2024/01/19 00:22:10;;;;;;;2.77;1.83;;;;;;;24.15;39.70;93976.16;6158463;28;109151;-52
2024/01/19 00:25:14;;;;;;;5.30;1.80;;;;;;;23.73;39.89;93939.19;6158534;28;109141;-52
2024/01/19 00:28:17;;;;;;;2.27;1.87;;;;;;;23.87;39.78;93989.56;6148432;28;109339;-52
2024/01/19 00:31:20;;;;;;;2.70;1.93;;;;;;;24.04;39.43;93993.84;6152486;28;110134;-52
2024/01/19 00:34:23;;;;;;;3.60;1.90;;;;;;;23.97;39.68;93993.59;6159415;28;110399;-51
2024/01/19 00:37:26;;;;;;;3.80;1.60;;;;;;;23.88;39.23;93986.53;6158649;28;110218;-53
2024/01/19 00:40:31;;;;;;;3.60;2.00;;;;;;;23.98;39.16;94006.63;6147315;28;109343;-52
2024/01/19 00:43:34;;;;;;;6.43;2.43;;;;;;;24.17;38.96;93984.59;6157465;28;109134;-52
2024/01/19 00:46:37;;;;;;;6.03;2.00;;;;;;;24.02;39.20;93990.69;6157981;28;109233;-52
2024/01/19 00:49:40;;;;;;;5.93;2.17;;;;;;;23.81;39.27;94007.72;6152765;28;110672;-53
2024/01/19 00:52:43;;;;;;;3.03;1.90;;;;;;;24.17;38.67;93989.94;6153155;28;109131;-52
2024/01/19 00:55:47;;;;;;;3.47;2.00;;;;;;;24.11;38.87;93994.00;6158253;28;113432;-52
2024/01/19 00:58:50;;;;;;;5.20;2.07;;;;;;;23.86;38.85;93983.44;6157481;28;109244;-52
2024/01/19 01:01:53;;;;;;;3.43;1.90;;;;;;;24.06;38.88;93994.25;6146209;28;109419;-52
2024/01/19 01:04:57;;;;;;;2.77;1.97;;;;;;;24.18;38.36;93994.16;6158122;28;109125;-53
2024/01/19 01:08:00;;;;;;;3.83;1.60;;;;;;;24.00;38.55;93996.38;6158051;28;110364;-52
2024/01/19 01:11:05;;;;;;;3.83;2.07;;;;;;;23.85;39.12;94002.44;6158229;28;108939;-52
2024/01/19 01:14:09;;;;;;;3.70;1.90;;;;;;;24.10;38.58;93989.78;6138388;28;109400;-52
2024/01/19 01:17:12;;;;;;;3.13;1.70;;;;;;;24.06;38.38;94010.28;6156329;28;110088;-52
2024/01/19 01:20:20;;;;;;;4.90;1.90;;;;;;;23.79;39.26;93995.81;6156538;28;109396;-50
2024/01/19 01:23:24;;;;;;;2.07;1.57;;;;;;;24.07;38.39;93985.91;6152595;28;110028;-52
2024/01/19 01:26:28;;;;;;;3.67;2.50;;;;;;;24.11;38.10;93999.34;6152528;28;109321;-52
2024/01/19 01:29:31;;;;;;;5.17;2.43;;;;;;;23.90;38.85;93999.56;6157611;28;110192;-52
2024/01/19 01:32:34;;;;;;;5.80;1.83;;;;;;;23.95;38.71;93996.63;6157713;28;109161;-52
2024/01/19 01:35:38;;;;;;;3.60;1.70;;;;;;;24.16;38.17;93991.06;6147471;28;110157;-51
2024/01/19 01:38:41;;;;;;;4.50;1.83;;;;;;;24.00;38.38;93987.59;6156797;28;110315;-52
2024/01/19 01:41:48;;;;;;;3.10;1.50;;;;;;;23.77;39.09;93976.69;6158245;28;110252;-52
2024/01/19 01:44:51;;;;;;;3.80;2.00;;;;;;;24.14;38.33;93987.97;6158748;28;109073;-52
2024/01/19 01:47:55;;;;;;;2.77;1.70;;;;;;;23.99;38.64;93978.00;6149736;28;110257;-52
2024/01/19 01:50:58;;;;;;;2.47;1.60;;;;;;;23.85;38.99;93987.19;6160928;28;109066;-52
2024/01/19 01:54:02;;;;;;;3.73;1.60;;;;;;;23.99;38.91;93986.00;6161550;28;109189;-52
2024/01/19 01:57:07;;;;;;;3.60;1.60;;;;;;;24.09;38.31;93990.91;6161920;28;110426;-52
2024/01/19 02:00:13;;;;;;;2.80;1.73;;;;;;;23.84;38.62;93990.22;6150257;28;109252;-52
2024/01/19 02:03:17;;;;;;;3.23;1.87;;;;;;;23.95;39.00;93993.94;6161744;28;110156;-52
2024/01/19 02:06:20;;;;;;;2.37;1.70;;;;;;;24.18;38.09;93986.91;6161407;28;109024;-52
2024/01/19 02:09:23;;;;;;;4.07;1.50;;;;;;;23.88;38.70;93994.56;6152049;28;109078;-51
2024/01/19 02:12:28;;;;;;;3.50;1.50;;;;;;;23.73;39.04;93995.28;6160577;28;110226;-52
2024/01/19 02:15:34;;;;;;;3.33;1.63;;;;;;;24.11;38.64;93994.78;6160378;28;110188;-52
2024/01/19 02:18:37;;;;;;;7.43;2.20;;;;;;;24.13;38.47;94005.13;6161108;28;110292;-52
2024/01/19 02:21:40;;;;;;;7.80;1.57;;;;;;;23.90;38.84;94012.91;6150617;28;108950;-52
2024/01/19 02:24:45;;;;;;;4.27;1.50;;;;;;;23.97;38.76;94012.31;6161854;28;109261;-52
2024/01/19 02:27:48;;;;;;;3.80;1.73;;;;;;;24.18;38.70;94010.19;6160672;28;110219;-52
2024/01/19 02:30:51;;;;;;;3.40;2.00;;;;;;;24.04;38.61;94020.56;6161627;28;109356;-52
2024/01/19 02:33:54;;;;;;;4.97;1.40;;;;;;;23.66;39.12;94013.00;6152334;28;110130;-52
2024/01/19 02:36:57;;;;;;;2.90;1.60;;;;;;;24.14;38.49;94025.38;6178128;28;109902;-52
2024/01/19 02:40:04;;;;;;;3.00;1.70;;;;;;;24.06;38.67;94023.66;6160756;28;110046;-52
2024/01/19 02:43:08;;;;;;;2.10;1.43;;;;;;;23.86;39.20;94036.09;6155492;28;109151;-52
2024/01/19 02:46:14;;;;;;;4.30;1.37;;;;;;;24.05;38.73;94030.91;6154299;28;109148;-52
2024/01/19 02:49:17;;;;;;;4.57;1.50;;;;;;;24.14;38.32;94028.06;6160775;28;109167;-52
2024/01/19 02:52:21;;;;;;;2.07;1.30;;;;;;;23.98;38.79;94024.53;6161128;28;110431;-53
2024/01/19 02:55:25;;;;;;;3.90;1.60;;;;;;;23.82;39.08;94038.66;6150622;28;110556;-52
2024/01/19 02:58:28;;;;;;;2.63;1.47;;;;;;;24.13;38.39;94048.66;6160085;28;109187;-52
2024/01/19 03:01:31;;;;;;;3.30;1.00;;;;;;;23.96;38.61;94040.94;6159493;28;110489;-52
2024/01/19 03:04:34;;;;;;;3.27;1.60;;;;;;;23.73;39.12;94038.03;6160347;28;110292;-52
2024/01/19 03:07:37;;;;;;;2.00;1.20;;;;;;;24.05;38.60;94043.50;6149477;28;110162;-52
2024/01/19 03:10:42;;;;;;;3.70;1.33;;;;;;;24.11;38.44;94031.41;6158663;28;109090;-51
2024/01/19 03:13:45;;;;;;;3.00;1.57;;;;;;;23.89;38.76;94041.53;6159334;28;109252;-51
2024/01/19 03:16:48;;;;;;;2.10;1.40;;;;;;;23.90;38.69;94035.06;6157770;28;109149;-51
2024/01/19 03:19:51;;;;;;;3.87;1.57;;;;;;;24.14;38.34;94049.44;6151963;28;109233;-50
2024/01/19 03:22:54;;;;;;;4.30;1.20;;;;;;;24.09;37.98;94034.44;6159897;28;110183;-50
2024/01/19 03:25:59;;;;;;;4.33;1.40;;;;;;;23.87;38.78;94043.75;6158613;28;109818;-51
2024/01/19 03:29:03;;;;;;;2.47;1.30;;;;;;;23.95;38.38;94049.28;6149918;28;110273;-51
2024/01/19 03:32:06;;;;;;;3.77;1.40;;;;;;;24.22;37.68;94043.16;6159119;28;110195;-50
2024/01/19 03:35:09;;;;;;;1.80;1.33;;;;;;;24.05;37.90;94036.25;6160133;28;110321;-51
2024/01/19 03:38:12;;;;;;;4.00;1.30;;;;;;;23.79;38.32;94033.22;6160653;28;110146;-50
2024/01/19 03:41:17;;;;;;;2.37;1.50;;;;;;;24.04;38.17;94037.38;6149481;28;109893;-51
2024/01/19 03:44:20;;;;;;;3.00;1.53;;;;;;;24.19;37.58;94046.50;6158867;28;110250;-50
2024/01/19 03:47:23;;;;;;;5.37;1.40;;;;;;;24.01;37.85;94059.41;6159609;28;109284;-51
2024/01/19 03:50:26;;;;;;;2.17;1.50;;;;;;;23.75;38.68;94056.41;6158925;28;109096;-51
2024/01/19 03:53:29;;;;;;;2.60;1.33;;;;;;;24.07;37.88;94057.28;6148881;28;110005;-50
2024/01/19 03:56:33;;;;;;;1.93;1.27;;;;;;;24.15;37.82;94056.34;6157040;28;110197;-50
2024/01/19 03:59:36;;;;;;;2.03;1.30;;;;;;;23.97;37.97;94057.75;6157082;28;109524;-51
2024/01/19 04:02:39;;;;;;;6.30;1.87;;;;;;;23.79;39.05;94059.94;6151874;28;109914;-59
2024/01/19 04:05:43;;;;;;;3.53;1.70;;;;;;;23.10;37.79;94061.75;6154013;28;111940;-54
2024/01/19 04:08:46;;;;;;;3.10;2.23;;;;;;;22.81;37.95;94076.09;6157739;28;109056;-54
2024/01/19 04:11:50;;;;;;;3.80;1.63;;;;;;;22.48;37.67;94076.16;6158977;28;110080;-57
2024/01/19 04:14:53;;;;;;;3.67;2.60;;;;;;;22.19;37.64;94077.13;6147521;28;110405;-50
2024/01/19 04:17:57;;;;;;;5.43;3.00;;;;;;;22.15;37.59;94072.78;6157549;28;110457;-50
2024/01/19 04:21:00;;;;;;;3.50;3.20;;;;;;;22.09;37.72;94080.19;6158879;28;110215;-51
2024/01/19 04:24:03;;;;;;;12.33;11.20;;;;;;;21.87;37.25;94076.03;6158886;28;109262;-52
2024/01/19 04:27:10;;;;;;;7.10;6.47;;;;;;;21.82;37.29;94076.22;6147790;28;110986;-53
2024/01/19 04:30:14;;;;;;;6.17;5.23;;;;;;;21.77;36.72;94079.84;6158738;28;109212;-52
2024/01/19 04:33:17;;;;;;;5.27;4.77;;;;;;;21.69;36.44;94067.38;6158933;28;110526;-52
2024/01/19 04:36:20;;;;;;;4.70;4.10;;;;;;;21.63;36.62;94059.91;6157588;28;109062;-50
2024/01/19 04:39:23;;;;;;;4.23;3.83;;;;;;;21.49;36.66;94055.63;6151691;28;110712;-52
2024/01/19 04:42:27;;;;;;;5.57;4.47;;;;;;;21.59;36.28;94061.66;6157852;28;110046;-56
2024/01/19 04:45:30;;;;;;;5.53;5.03;;;;;;;21.67;36.81;94063.47;6158328;28;110114;-54
2024/01/19 04:48:33;;;;;;;7.30;5.83;;;;;;;21.67;36.58;94068.78;6148329;28;109416;-54
2024/01/19 04:51:37;;;;;;;8.00;5.10;;;;;;;21.65;36.38;94071.00;6158030;28;110250;-54
2024/01/19 04:54:40;;;;;;;6.50;5.20;;;;;;;21.66;36.74;94084.00;6154488;28;109458;-54
2024/01/19 04:57:45;;;;;;;8.87;5.70;;;;;;;21.50;37.14;94048.41;6161658;28;109312;-54
2024/01/19 05:00:48;;;;;;;6.13;5.47;;;;;;;21.69;36.55;94082.59;6175324;22;109475;-76
2024/01/19 05:03:54;;;;;;;7.50;5.60;;;;;;;21.68;36.71;94070.38;6183721;28;109015;-77
2024/01/19 05:06:58;;;;;;;6.40;5.47;;;;;;;21.72;37.92;94081.94;6190017;28;109745;-77
2024/01/19 05:10:01;;;;;;;5.27;4.57;;;;;;;21.86;37.78;94089.69;6182864;22;109021;-55
2024/01/19 05:13:05;;;;;;;6.33;4.80;;;;;;;21.91;37.87;94068.94;6144735;28;110498;-59
2024/01/19 05:16:09;;;;;;;4.90;4.37;;;;;;;22.04;37.53;94077.75;6147053;28;109150;-55
2024/01/19 05:19:12;;;;;;;6.33;4.90;;;;;;;21.98;37.44;94087.03;6147856;28;108802;-55
2024/01/19 05:22:15;;;;;;;6.40;4.10;;;;;;;21.95;37.72;94095.69;6153416;28;109543;-55
2024/01/19 05:25:18;;;;;;;5.90;4.60;;;;;;;21.92;38.18;94096.34;6155287;28;109461;-55
2024/01/19 05:28:23;;;;;;;8.20;4.07;;;;;;;21.89;38.11;94081.03;6182505;28;109067;-56
2024/01/19 05:31:26;;;;;;;5.20;3.93;;;;;;;21.86;37.47;94095.78;6168520;28;109195;-56
2024/01/19 05:34:29;;;;;;;5.10;3.47;;;;;;;21.79;37.54;94106.91;6147600;28;109167;-56
2024/01/19 05:37:32;;;;;;;6.10;3.53;;;;;;;21.76;37.91;94104.13;6178226;28;109051;-57
2024/01/19 05:40:35;;;;;;;5.80;3.70;;;;;;;21.74;37.78;94117.00;6182460;28;110295;-55
2024/01/19 05:43:39;;;;;;;4.17;3.77;;;;;;;21.37;38.03;94057.47;6182543;28;110706;-56
2024/01/19 05:46:43;;;;;;;4.80;3.73;;;;;;;21.67;37.69;94119.38;6171268;28;109255;-57
2024/01/19 05:49:46;;;;;;;4.00;3.60;;;;;;;21.65;37.73;94117.03;6182909;28;110351;-56
2024/01/19 05:52:49;;;;;;;4.70;3.77;;;;;;;21.62;37.80;94114.25;6160842;28;109284;-56
2024/01/19 05:55:52;;;;;;;5.30;3.80;;;;;;;21.61;37.54;94112.72;6161691;28;109137;-54
2024/01/19 05:58:57;;;;;;;3.97;3.50;;;;;;;21.58;37.46;94100.06;6174588;28;108972;-55
2024/01/19 06:02:01;;;;;;;4.50;3.37;;;;;;;21.54;37.47;94123.88;6181591;28;109160;-56
2024/01/19 06:05:04;;;;;;;5.20;3.70;;;;;;;21.52;37.50;94100.25;6182263;28;109137;-55
2024/01/19 06:08:07;;;;;;;5.50;3.77;;;;;;;21.51;37.47;94111.22;6171392;28;109197;-55
2024/01/19 06:11:10;;;;;;;4.07;3.67;;;;;;;21.50;37.58;94117.63;6174313;28;109226;-56
2024/01/19 06:14:15;;;;;;;3.63;3.10;;;;;;;21.50;37.38;94104.31;6156972;28;109513;-55
2024/01/19 06:17:18;;;;;;;5.87;3.20;;;;;;;21.47;37.04;94105.75;6173245;28;109148;-56
2024/01/19 06:20:21;;;;;;;5.23;3.23;;;;;;;21.48;37.54;94120.63;6171129;28;109715;-56
2024/01/19 06:23:24;;;;;;;4.87;3.20;;;;;;;21.46;37.40;94112.19;6182180;28;110213;-56
2024/01/19 06:26:32;;;;;;;3.27;2.97;;;;;;;21.45;37.12;94112.50;6182068;28;110222;-56
2024/01/19 06:29:36;;;;;;;3.20;2.60;;;;;;;21.45;36.90;94142.56;6182021;28;108824;-56
2024/01/19 06:32:39;;;;;;;4.07;3.00;;;;;;;21.45;37.17;94129.25;6171445;28;111025;-52
2024/01/19 06:35:43;;;;;;;4.30;3.30;;;;;;;21.41;37.28;94107.06;6184826;28;110153;-52
2024/01/19 06:38:46;;;;;;;3.40;3.10;;;;;;;21.40;37.08;94137.44;6161922;28;109981;-53
2024/01/19 06:41:49;;;;;;;3.10;2.80;;;;;;;21.37;37.55;94137.31;6156458;28;109895;-52
2024/01/19 06:44:53;;;;;;;3.10;2.70;;;;;;;21.34;37.52;94152.03;6155847;28;110142;-52
2024/01/19 06:47:56;;;;;;;3.07;2.30;;;;;;;21.30;37.46;94164.41;6160844;28;109469;-53
2024/01/19 06:51:00;;;;;;;2.93;2.63;;;;;;;21.28;37.18;94150.66;6161362;28;110297;-53
2024/01/19 06:54:03;;;;;;;3.80;3.00;;;;;;;21.26;37.25;94160.84;6150973;28;111063;-51
2024/01/19 06:57:06;;;;;;;3.20;2.70;;;;;;;21.25;37.02;94161.94;6161181;28;110167;-51
2024/01/19 07:00:11;;;;;;;6.20;2.77;;;;;;;21.24;37.20;94171.03;6162070;28;109287;-51
2024/01/19 07:03:14;;;;;;;3.57;2.47;;;;;;;21.10;37.22;94157.16;6185270;28;109910;-51
2024/01/19 07:06:18;;;;;;;4.10;2.80;;;;;;;21.25;37.08;94167.25;6170569;28;111057;-51
2024/01/19 07:09:21;;;;;;;3.23;2.67;;;;;;;21.28;37.04;94169.28;6160424;28;109179;-51
2024/01/19 07:12:24;;;;;;;2.63;2.43;;;;;;;21.28;37.25;94158.63;6160971;28;109151;-51
2024/01/19 07:15:29;;;;;;;3.07;2.73;;;;;;;21.45;36.71;94179.81;6157155;28;109296;-52
2024/01/19 07:18:32;;;;;;;3.50;2.47;;;;;;;21.53;39.06;94175.56;6155401;28;110233;-52
2024/01/19 07:21:37;;;;;;;2.87;2.57;;;;;;;21.67;37.50;94183.28;6160721;28;109070;-52
2024/01/19 07:24:41;;;;;;;3.30;2.50;;;;;;;21.74;36.39;94173.69;6160774;28;109280;-52
2024/01/19 07:27:44;;;;;;;3.20;2.63;;;;;;;21.63;36.45;94182.38;6151116;28;110024;-52
2024/01/19 07:30:48;;;;;;;3.30;2.70;;;;;;;21.51;36.66;94175.88;6160762;28;110396;-51
2024/01/19 07:33:51;;;;;;;3.13;2.37;;;;;;;21.46;36.69;94170.72;6136150;28;109701;-51
2024/01/19 07:36:54;;;;;;;3.00;2.40;;;;;;;21.46;36.66;94168.06;6144677;28;109042;-51
2024/01/19 07:39:57;;;;;;;3.00;2.70;;;;;;;21.47;37.02;94172.28;6149609;28;109319;-51
2024/01/19 07:43:00;;;;;;;2.60;2.40;;;;;;;21.48;36.50;94171.19;6176520;28;109211;-51
2024/01/19 07:46:05;;;;;;;3.70;2.50;;;;;;;21.48;36.44;94163.19;6184195;28;110127;-52
2024/01/19 07:49:08;;;;;;;3.90;2.67;;;;;;;21.48;36.89;94179.16;6160107;28;109344;-51
2024/01/19 07:52:11;;;;;;;3.20;2.73;;;;;;;21.47;36.48;94171.50;6149429;28;109529;-52
2024/01/19 07:55:14;;;;;;;4.10;2.77;;;;;;;21.43;36.60;94171.38;6142607;28;109125;-51
2024/01/19 07:58:17;;;;;;;4.27;3.37;;;;;;;21.44;36.25;94170.28;6154067;28;109293;-51
2024/01/19 08:01:22;;;;;;;3.27;2.53;;;;;;;21.44;36.83;94178.25;6155885;28;110984;-52
2024/01/19 08:04:25;;;;;;;3.17;2.80;;;;;;;21.44;36.37;94196.91;6182047;28;109283;-51
2024/01/19 08:07:28;;;;;;;5.60;3.00;;;;;;;21.44;36.81;94180.16;6184691;28;109150;-52
2024/01/19 08:10:34;;;;;;;4.10;2.70;;;;;;;21.41;36.88;94168.28;6184089;28;110302;-52
2024/01/19 08:13:37;;;;;;;4.43;2.97;;;;;;;21.44;36.65;94180.16;6153142;28;111254;-52
2024/01/19 08:16:44;;;;;;;3.60;3.20;;;;;;;21.50;36.24;94181.50;6159579;28;110235;-52
2024/01/19 08:19:47;;;;;;;3.30;3.00;;;;;;;21.42;36.61;94175.16;6159824;28;110227;-52
2024/01/19 08:22:50;;;;;;;3.87;3.30;;;;;;;21.47;36.58;94190.94;6159652;28;110234;-51
2024/01/19 08:25:53;;;;;;;3.87;3.47;;;;;;;21.45;36.40;94198.47;6148254;28;109179;-52
2024/01/19 08:28:56;;;;;;;3.90;3.50;;;;;;;21.47;36.20;94198.91;6181858;28;110122;-51
2024/01/19 08:32:01;;;;;;;3.83;3.43;;;;;;;21.49;36.12;94201.25;6174647;28;109314;-51
2024/01/19 08:35:08;;;;;;;4.00;3.60;;;;;;;21.48;36.48;94213.00;6179335;28;110429;-51
2024/01/19 08:38:13;;;;;;;4.17;3.57;;;;;;;21.48;35.96;94205.00;6177873;28;109078;-52
2024/01/19 08:41:16;;;;;;;4.60;3.80;;;;;;;21.47;36.29;94212.22;6183951;28;110107;-52
2024/01/19 08:44:19;;;;;;;3.73;3.10;;;;;;;21.46;36.18;94200.00;6159093;28;109212;-51
2024/01/19 08:47:23;;;;;;;4.07;3.67;;;;;;;21.45;36.41;94211.75;6149085;28;109933;-51
2024/01/19 08:50:27;;;;;;;3.50;3.20;;;;;;;21.49;35.95;94215.34;6159169;28;110100;-51
2024/01/19 08:53:30;;;;;;;4.10;3.47;;;;;;;21.51;36.12;94215.03;6158888;28;110037;-54
2024/01/19 08:56:33;;;;;;;4.00;3.53;;;;;;;21.51;36.10;94215.81;6136215;28;109158;-54
2024/01/19 08:59:45;;;;;;;4.53;3.83;;;;;;;21.50;35.97;94219.56;6147891;28;109151;-54
2024/01/19 09:02:50;;;;;;;4.27;3.87;;;;;;;21.51;35.88;94212.38;6169167;28;109136;-55
2024/01/19 09:06:05;;;;;;;4.00;3.60;;;;;;;21.50;35.99;94219.56;6183280;28;110287;-56
2024/01/19 09:09:08;;;;;;;4.40;3.60;;;;;;;21.48;35.91;94216.44;6177838;28;109249;-55
2024/01/19 09:12:11;;;;;;;4.37;3.70;;;;;;;21.47;35.82;94214.88;6176684;28;109275;-56
2024/01/19 09:15:16;;;;;;;5.93;3.73;;;;;;;21.47;36.10;94203.47;6182952;28;109303;-55
2024/01/19 09:18:21;;;;;;;4.77;4.30;;;;;;;21.47;35.99;94209.56;6168072;28;109421;-55
2024/01/19 09:21:24;;;;;;;6.50;4.50;;;;;;;21.45;35.90;94209.09;6148613;28;111412;-55
2024/01/19 09:24:27;;;;;;;4.13;3.73;;;;;;;21.45;35.98;94195.78;6158040;28;108950;-56
2024/01/19 09:27:30;;;;;;;8.20;4.10;;;;;;;21.45;35.80;94189.69;6158285;28;109308;-55
2024/01/19 09:30:33;;;;;;;4.47;3.93;;;;;;;21.42;36.26;94191.13;6158166;28;109157;-55
2024/01/19 09:33:39;;;;;;;5.60;4.03;;;;;;;21.38;35.85;94179.56;6162800;28;109283;-55
2024/01/19 09:36:42;;;;;;;4.37;3.97;;;;;;;21.51;36.13;94194.53;6182444;28;109044;-55
2024/01/19 09:39:45;;;;;;;4.53;4.13;;;;;;;21.57;35.55;94186.34;6182573;28;109271;-56
2024/01/19 09:42:54;;;;;;;7.13;6.43;;;;;;;21.55;35.87;94169.91;6181780;28;108858;-55
2024/01/19 09:46:04;;;;;;;11.90;10.77;;;;;;;21.54;36.25;94173.69;6172363;28;110524;-55
2024/01/19 09:49:14;;;;;;;15.30;14.03;;;;;;;21.59;35.75;94168.94;6162517;28;109144;-55
2024/01/19 09:52:27;;;;;;;15.10;14.00;;;;;;;21.56;35.68;94161.59;6162144;28;110258;-56
2024/01/19 09:55:31;;;;;;;17.90;16.60;;;;;;;21.56;35.82;94172.25;6142992;28;110016;-55
2024/01/19 09:58:34;;;;;;;17.33;16.03;;;;;;;21.53;35.93;94180.88;6157806;28;109402;-55
2024/01/19 10:01:37;;;;;;;17.80;16.40;;;;;;;21.50;36.41;94179.63;6157917;28;110275;-55
2024/01/19 10:04:41;;;;;;;18.33;16.90;;;;;;;21.47;36.20;94180.28;6180333;28;109555;-56
2024/01/19 10:07:46;;;;;;;16.83;15.33;;;;;;;21.47;36.04;94172.28;6175961;28;110979;-56
2024/01/19 10:10:51;;;;;;;15.67;14.40;;;;;;;21.36;36.22;94167.69;6186085;28;109463;-56
2024/01/19 10:13:54;;;;;;;15.87;14.70;;;;;;;21.43;36.12;94173.25;6186582;28;109036;-55
2024/01/19 10:16:58;;;;;;;15.90;14.60;;;;;;;21.40;36.03;94161.38;6185854;28;109058;-55
2024/01/19 10:20:04;;;;;;;14.33;13.23;;;;;;;21.40;36.14;94155.28;6126627;28;109017;-55
2024/01/19 10:23:23;;;;;;;13.53;12.43;;;;;;;21.39;36.23;94157.16;6155692;28;109152;-55
2024/01/19 10:26:27;;;;;;;13.47;12.43;;;;;;;21.38;36.03;94131.66;6185437;28;110569;-55
2024/01/19 10:29:31;;;;;;;12.47;11.23;;;;;;;21.37;36.41;94138.09;6177863;28;109387;-56
2024/01/19 10:32:34;;;;;;;11.93;11.03;;;;;;;21.38;36.13;94136.97;6172238;28;110345;-55
2024/01/19 10:35:41;;;;;;;11.30;10.37;;;;;;;21.36;36.15;94123.22;6186529;28;110308;-55
2024/01/19 10:38:44;;;;;;;11.00;10.10;;;;;;;21.40;35.97;94126.78;6186291;28;109040;-56
2024/01/19 10:41:48;;;;;;;10.33;9.53;;;;;;;21.43;36.07;94123.47;6175653;28;109108;-55
2024/01/19 10:44:51;;;;;;;9.20;8.40;;;;;;;21.42;36.28;94111.28;6185318;28;109240;-55
2024/01/19 10:47:56;;;;;;;9.37;8.53;;;;;;;21.44;35.93;94116.28;6185764;28;110146;-56
2024/01/19 10:51:03;;;;;;;9.10;8.30;;;;;;;21.13;35.66;94074.84;6185412;28;109143;-56
2024/01/19 10:54:07;;;;;;;8.80;7.97;;;;;;;21.45;35.76;94091.22;6174692;28;109086;-56
2024/01/19 10:57:11;;;;;;;9.63;8.80;;;;;;;21.47;35.90;94081.78;6185402;28;108857;-56
2024/01/19 11:00:22;;;;;;;9.07;8.27;;;;;;;21.43;36.10;94094.19;6160827;28;110339;-56
2024/01/19 11:03:25;;;;;;;9.70;8.80;;;;;;;21.46;35.82;94098.88;6160037;28;109107;-56
2024/01/19 11:06:30;;;;;;;8.70;7.93;;;;;;;21.39;36.09;94080.00;6184663;28;109044;-55
2024/01/19 11:09:33;;;;;;;8.50;7.80;;;;;;;21.44;35.94;94087.78;6184318;28;109158;-55
2024/01/19 11:12:41;;;;;;;8.57;7.87;;;;;;;21.47;35.78;94084.47;6185255;28;109204;-55
2024/01/19 11:15:50;;;;;;;8.60;7.90;;;;;;;21.49;36.03;94084.13;6174722;28;109322;-55
2024/01/19 11:18:54;;;;;;;7.90;7.10;;;;;;;21.50;36.08;94085.69;6185335;28;110262;-54
2024/01/19 11:22:00;;;;;;;7.70;7.00;;;;;;;21.41;36.08;94069.78;6184741;28;109160;-54
2024/01/19 11:25:10;;;;;;;8.00;7.30;;;;;;;21.49;35.88;94092.88;6185471;28;109076;-56
2024/01/19 11:28:21;;;;;;;7.67;6.87;;;;;;;21.50;35.98;94099.78;6173773;28;109298;-56
2024/01/19 11:31:28;;;;;;;7.50;6.80;;;;;;;21.52;35.83;94078.97;6177725;28;109092;-55
2024/01/19 11:34:44;;;;;;;6.00;5.47;;;;;;;21.52;35.66;94073.63;6177039;28;110257;-55
2024/01/19 11:37:49;;;;;;;9.40;6.30;;;;;;;21.51;35.75;94073.97;6173626;28;109049;-55
2024/01/19 11:40:53;;;;;;;6.30;5.80;;;;;;;21.51;35.87;94073.97;6185012;28;110137;-55
2024/01/19 11:43:56;;;;;;;6.60;5.90;;;;;;;21.50;35.73;94080.38;6184837;28;110634;-55
2024/01/19 11:46:59;;;;;;;6.60;5.87;;;;;;;21.51;35.92;94087.28;6184521;28;109625;-55
2024/01/19 11:50:03;;;;;;;6.37;5.77;;;;;;;21.39;35.78;94080.00;6173752;28;109469;-55
2024/01/19 11:53:08;;;;;;;5.90;5.30;;;;;;;21.49;35.70;94081.47;6184221;28;110193;-55
2024/01/19 11:56:22;;;;;;;6.20;5.60;;;;;;;21.54;35.39;94073.31;6184142;28;109272;-55
2024/01/19 11:59:25;;;;;;;5.73;5.13;;;;;;;21.49;35.69;94071.59;6182279;28;110816;-55
2024/01/19 12:02:30;;;;;;;6.53;4.60;;;;;;;21.47;35.93;94067.72;6170540;28;109163;-55
2024/01/19 12:05:37;;;;;;;4.77;4.27;;;;;;;21.47;35.81;94076.47;6184122;28;109084;-55
2024/01/19 12:08:42;;;;;;;4.73;4.23;;;;;;;21.48;36.09;94079.91;6183763;28;109090;-55
2024/01/19 12:11:46;;;;;;;5.17;4.17;;;;;;;21.48;36.06;94079.91;6173353;28;110129;-55
2024/01/19 12:14:51;;;;;;;4.77;4.33;;;;;;;21.46;35.70;94084.78;6184424;28;110240;-55
2024/01/19 12:17:56;;;;;;;5.70;4.67;;;;;;;21.47;36.10;94079.13;6183709;28;109551;-55
2024/01/19 12:21:00;;;;;;;4.70;4.30;;;;;;;21.47;35.84;94081.00;6183795;28;109210;-54
2024/01/19 12:24:05;;;;;;;4.80;4.30;;;;;;;21.46;35.86;94074.91;6172779;28;110204;-55
2024/01/19 12:27:08;;;;;;;4.73;4.33;;;;;;;21.43;35.68;94072.91;6183377;28;109297;-55
2024/01/19 12:30:12;;;;;;;4.20;3.73;;;;;;;21.45;35.88;94076.03;6183524;28;109186;-55
2024/01/19 12:33:18;;;;;;;4.87;4.43;;;;;;;21.44;35.73;94079.78;6176014;28;109019;-55
2024/01/19 12:36:25;;;;;;;4.60;4.20;;;;;;;21.42;35.68;94074.00;6173950;28;110089;-55
2024/01/19 12:39:30;;;;;;;4.70;4.07;;;;;;;21.42;36.10;94073.22;6160562;28;109255;-55
2024/01/19 12:42:36;;;;;;;4.43;4.03;;;;;;;21.40;35.57;94065.56;6159358;28;110126;-55
2024/01/19 12:45:40;;;;;;;4.50;4.00;;;;;;;21.40;35.57;94072.78;6149335;28;110198;-55
2024/01/19 12:48:57;;;;;;;4.63;3.80;;;;;;;21.40;35.58;94070.91;6158418;28;109222;-55
2024/01/19 12:52:00;;;;;;;5.93;4.40;;;;;;;21.40;35.55;94073.56;6159316;28;109096;-55
2024/01/19 12:55:06;;;;;;;4.80;4.00;;;;;;;21.41;35.67;94074.34;6159024;28;110381;-55
2024/01/19 12:58:09;;;;;;;4.50;3.90;;;;;;;21.41;35.96;94061.03;6148560;28;110070;-55
2024/01/19 13:01:13;;;;;;;4.17;3.77;;;;;;;21.42;35.63;94062.59;6159134;28;110264;-55
2024/01/19 13:04:17;;;;;;;6.70;3.93;;;;;;;21.41;35.75;94058.38;6178434;28;109286;-55
2024/01/19 13:07:23;;;;;;;5.13;3.90;;;;;;;21.41;35.88;94053.81;6183379;28;110003;-56
2024/01/19 13:10:27;;;;;;;3.93;3.53;;;;;;;21.42;35.64;94068.69;6173103;28;110124;-56
2024/01/19 13:13:30;;;;;;;5.10;3.93;;;;;;;21.41;35.84;94067.13;6183039;28;110183;-55
2024/01/19 13:16:50;;;;;;;4.23;3.83;;;;;;;21.41;35.43;94072.47;6182930;28;109133;-55
2024/01/19 13:19:53;;;;;;;6.27;4.27;;;;;;;21.41;35.67;94080.44;6173561;28;110090;-54
2024/01/19 13:22:56;;;;;;;5.20;3.30;;;;;;;21.32;35.78;94055.75;6182420;28;110032;-54
2024/01/19 13:26:00;;;;;;;4.67;3.40;;;;;;;21.39;35.48;94080.00;6182547;28;109048;-54
2024/01/19 13:29:04;;;;;;;4.67;3.37;;;;;;;21.40;35.32;94076.22;6183319;28;110142;-54
2024/01/19 13:32:07;;;;;;;4.07;3.67;;;;;;;21.41;35.68;94075.13;6170817;28;110119;-53
2024/01/19 13:35:11;;;;;;;3.70;3.40;;;;;;;21.40;35.63;94078.09;6158614;28;110354;-54
2024/01/19 13:38:14;;;;;;;4.43;3.00;;;;;;;21.40;35.29;94078.09;6168110;28;110171;-54
2024/01/19 13:41:19;;;;;;;3.37;3.07;;;;;;;21.40;35.80;94091.41;6181642;28;109543;-56
2024/01/19 13:44:22;;;;;;;3.83;2.87;;;;;;;21.42;35.83;94091.88;6171529;28;108871;-56
2024/01/19 13:47:25;;;;;;;4.70;3.23;;;;;;;21.41;35.58;94083.09;6182229;28;110934;-56
2024/01/19 13:50:29;;;;;;;4.00;3.10;;;;;;;21.43;35.20;94091.53;6182652;28;110238;-54
2024/01/19 13:53:32;;;;;;;2.93;2.53;;;;;;;21.44;35.76;94093.09;6165734;28;109112;-55
2024/01/19 13:56:37;;;;;;;3.47;2.97;;;;;;;21.42;35.71;94100.63;6151854;28;109052;-55
2024/01/19 13:59:40;;;;;;;4.40;3.00;;;;;;;21.42;35.79;94097.97;6158093;28;110081;-57
2024/01/19 14:02:43;;;;;;;3.43;2.73;;;;;;;21.41;35.75;94096.41;6161851;28;109624;-55
2024/01/19 14:05:47;;;;;;;2.83;2.20;;;;;;;21.41;35.63;94087.66;6171966;28;111334;-55
2024/01/19 14:08:52;;;;;;;3.50;2.53;;;;;;;21.42;35.78;94091.88;6181848;28;108842;-56
2024/01/19 14:11:57;;;;;;;4.10;3.70;;;;;;;21.40;35.83;94100.19;6182198;28;109920;-56
2024/01/19 14:15:00;;;;;;;4.17;3.00;;;;;;;21.39;35.85;94101.28;6182177;28;110228;-56